Time;durP1;ratioP1;P1;durP2;ratioP2;P2;SDS_P1;SDS_P2;PMS_P1;PMS_P2;Temp;Humidity;BMP_temperature;BMP_pressure;BME280_temperature;BME280_humidity;BME280_pressure;Samples;Min_cycle;Max_cycle;Signal;HPM_P1;HPM_P2
2023/01/05 00:01:18;;;;;;;78.13;15.35;;;12.10;99.90;;;;;;4899854;29;20247;-86
2023/01/05 00:03:47;;;;;;;78.30;13.23;;;12.10;99.90;;;;;;4899957;29;20197;-86
2023/01/05 00:06:24;;;;;;;81.20;11.02;;;12.10;99.90;;;;;;4901442;29;20579;-86
2023/01/05 00:08:49;;;;;;;75.63;13.45;;;12.10;99.90;;;;;;4901265;29;20198;-86
2023/01/05 00:22:46;;;;;;;80.45;15.10;;;12.00;99.90;;;;;;4900816;29;20216;-86
2023/01/05 00:25:16;;;;;;;75.65;15.73;;;12.00;99.90;;;;;;4901117;29;20162;-86
2023/01/05 00:27:44;;;;;;;77.60;16.30;;;12.00;99.90;;;;;;4899752;29;20550;-86
2023/01/05 00:30:12;;;;;;;77.60;16.85;;;12.00;99.90;;;;;;4900700;29;20190;-86
2023/01/05 00:32:40;;;;;;;82.47;14.60;;;12.00;99.90;;;;;;4900674;29;20166;-86
2023/01/05 00:35:06;;;;;;;73.05;16.67;;;12.00;99.90;;;;;;4900862;29;20170;-86
2023/01/05 00:37:39;;;;;;;81.00;17.83;;;12.00;99.90;;;;;;4900519;29;20169;-86
2023/01/05 00:40:13;;;;;;;78.88;15.00;;;12.00;99.90;;;;;;4899203;29;20194;-86
2023/01/05 00:42:39;;;;;;;72.70;20.83;;;12.00;99.90;;;;;;4900772;29;20550;-86
2023/01/05 00:45:06;;;;;;;85.97;19.23;;;11.90;99.90;;;;;;4899461;29;20170;-86
2023/01/05 00:47:32;;;;;;;74.88;16.35;;;12.00;99.90;;;;;;4900370;29;20166;-86
2023/01/05 00:49:58;;;;;;;81.03;16.77;;;11.90;99.90;;;;;;4900655;29;20689;-86
2023/01/05 00:52:26;;;;;;;86.03;18.03;;;11.90;99.90;;;;;;4900538;29;20253;-86
2023/01/05 00:54:52;;;;;;;77.15;15.52;;;12.00;99.90;;;;;;4901078;29;20213;-86
2023/01/05 00:57:17;;;;;;;76.63;15.97;;;11.90;99.90;;;;;;4900375;29;20634;-86
2023/01/05 00:59:43;;;;;;;69.77;13.70;;;11.90;99.90;;;;;;4898929;29;20228;-86
2023/01/05 01:02:09;;;;;;;80.40;14.00;;;11.90;99.90;;;;;;4899991;29;20250;-87
2023/01/05 01:04:35;;;;;;;75.15;13.88;;;12.00;99.90;;;;;;4900496;29;20194;-86
2023/01/05 01:07:05;;;;;;;78.57;13.20;;;12.00;99.90;;;;;;4898847;29;20639;-86
2023/01/05 01:09:31;;;;;;;86.10;14.43;;;11.90;99.90;;;;;;4899553;29;20410;-86
2023/01/05 01:11:57;;;;;;;83.03;13.40;;;11.90;99.90;;;;;;4900362;29;20207;-86
2023/01/05 01:14:26;;;;;;;75.68;13.88;;;11.90;99.90;;;;;;4899984;29;20178;-86
2023/01/05 01:17:01;;;;;;;77.55;13.07;;;11.90;99.90;;;;;;4883458;29;20174;-86
2023/01/05 01:19:26;;;;;;;78.88;11.77;;;11.90;99.90;;;;;;4899938;29;20162;-86
2023/01/05 01:21:53;;;;;;;80.60;11.87;;;11.90;99.90;;;;;;4898645;29;20285;-86
2023/01/05 01:24:22;;;;;;;74.60;11.48;;;11.90;99.90;;;;;;4899954;29;20467;-86
2023/01/05 01:26:48;;;;;;;76.75;15.00;;;11.90;99.90;;;;;;4899775;29;20170;-86
2023/01/05 01:29:17;;;;;;;79.17;17.83;;;11.90;99.90;;;;;;4899495;29;20583;-86
2023/01/05 01:31:44;;;;;;;81.07;17.80;;;11.90;99.90;;;;;;4898280;29;20917;-86
2023/01/05 01:34:10;;;;;;;80.25;16.25;;;11.90;99.90;;;;;;4899549;29;20648;-86
2023/01/05 01:36:35;;;;;;;77.60;18.80;;;11.80;99.90;;;;;;4900176;29;20245;-86
2023/01/05 01:39:01;;;;;;;79.03;20.87;;;11.90;99.90;;;;;;4899572;29;20170;-86
2023/01/05 01:41:29;;;;;;;77.13;15.17;;;11.90;99.90;;;;;;4897756;29;20245;-86
2023/01/05 01:43:56;;;;;;;77.25;17.77;;;11.80;99.90;;;;;;4899426;29;20166;-86
2023/01/05 01:46:24;;;;;;;85.60;19.98;;;11.80;99.90;;;;;;4899121;29;20227;-86
2023/01/05 01:49:04;;;;;;;76.28;15.07;;;11.80;99.90;;;;;;4898132;29;20177;-86
2023/01/05 01:51:37;;;;;;;83.05;20.92;;;11.90;99.90;;;;;;4899222;29;20276;-86
2023/01/05 01:54:13;;;;;;;77.53;16.55;;;11.90;99.90;;;;;;4899245;29;20158;-86
2023/01/05 01:56:54;;;;;;;81.95;19.42;;;11.80;99.90;;;;;;4897105;29;20586;-86
2023/01/05 01:59:21;;;;;;;81.63;18.45;;;11.80;99.90;;;;;;4882230;29;20201;-86
2023/01/05 02:01:51;;;;;;;84.68;21.02;;;11.80;99.90;;;;;;4898780;29;20254;-86
2023/01/05 02:04:18;;;;;;;86.47;18.60;;;11.80;99.90;;;;;;4899500;29;20178;-86
2023/01/05 02:06:44;;;;;;;80.43;18.10;;;11.80;99.90;;;;;;4898946;29;20279;-86
2023/01/05 02:09:10;;;;;;;80.00;18.10;;;11.80;99.90;;;;;;4899419;29;20170;-86
2023/01/05 02:11:49;;;;;;;83.33;17.00;;;11.80;99.90;;;;;;4899071;29;20201;-86
2023/01/05 02:14:23;;;;;;;78.43;18.13;;;11.80;99.90;;;;;;4899181;29;20233;-86
2023/01/05 02:17:19;;;;;;;86.20;19.45;;;11.80;99.90;;;;;;4898786;29;20638;-86
2023/01/05 02:20:06;;;;;;;78.13;19.27;;;11.80;99.90;;;;;;4898719;29;20193;-86
2023/01/05 02:23:03;;;;;;;82.35;16.80;;;11.80;99.90;;;;;;4898641;29;20184;-86
2023/01/05 02:25:50;;;;;;;81.20;16.50;;;11.80;99.90;;;;;;4898702;29;20160;-86
2023/01/05 02:28:27;;;;;;;87.93;19.85;;;11.80;99.90;;;;;;4897296;29;20258;-86
2023/01/05 02:30:58;;;;;;;88.38;19.98;;;11.80;99.90;;;;;;4898618;29;20197;-86
2023/01/05 02:33:53;;;;;;;90.57;16.98;;;11.80;99.90;;;;;;4899231;29;20659;-86
2023/01/05 02:36:23;;;;;;;77.60;17.50;;;11.80;99.90;;;;;;4898508;29;20300;-85
2023/01/05 02:38:57;;;;;;;82.20;18.02;;;11.80;99.90;;;;;;4898440;29;20193;-85
2023/01/05 02:41:32;;;;;;;81.63;16.83;;;11.70;99.90;;;;;;4897066;29;20205;-86
2023/01/05 02:44:00;;;;;;;89.40;20.63;;;11.80;99.90;;;;;;4897187;29;20256;-85
2023/01/05 02:46:25;;;;;;;82.78;19.35;;;11.80;99.90;;;;;;4898481;29;20165;-86
2023/01/05 02:48:54;;;;;;;82.50;18.37;;;11.80;99.90;;;;;;4898399;29;20169;-86
2023/01/05 02:51:26;;;;;;;85.32;19.35;;;11.80;99.90;;;;;;4898648;29;20799;-86
2023/01/05 02:54:15;;;;;;;85.38;15.00;;;11.80;99.90;;;;;;4898458;29;20162;-86
2023/01/05 02:56:50;;;;;;;94.43;17.80;;;11.80;99.90;;;;;;4897720;29;20646;-86
2023/01/05 02:59:33;;;;;;;77.18;17.30;;;11.80;99.90;;;;;;4898756;29;20166;-86
2023/01/05 03:02:08;;;;;;;76.35;15.57;;;11.70;99.90;;;;;;4898468;29;20218;-86
2023/01/05 03:04:44;;;;;;;84.32;19.05;;;11.70;99.90;;;;;;4898539;29;20517;-86
2023/01/05 03:07:14;;;;;;;76.68;15.00;;;11.70;99.90;;;;;;4898562;29;20161;-86
2023/01/05 03:09:42;;;;;;;94.65;17.60;;;11.80;99.90;;;;;;4898047;29;20269;-86
2023/01/05 03:15:12;;;;;;;87.55;16.00;;;11.70;99.90;;;;;;4898757;29;20157;-86
2023/01/05 03:18:12;;;;;;;78.10;16.38;;;11.70;99.90;;;;;;4898129;29;20182;-86
2023/01/05 03:20:42;;;;;;;80.80;18.00;;;11.70;99.90;;;;;;4857100;29;20673;-86
2023/01/05 03:37:51;;;;;;;80.30;15.43;;;11.70;99.90;;;;;;4901557;29;20159;-86
2023/01/05 03:40:35;;;;;;;80.53;15.15;;;11.70;99.90;;;;;;4901616;29;20204;-86
2023/01/05 03:43:03;;;;;;;84.78;17.40;;;11.70;99.90;;;;;;4901876;29;20186;-86
2023/01/05 03:45:53;;;;;;;85.60;17.73;;;11.70;99.90;;;;;;4901648;29;20166;-86
2023/01/05 03:48:20;;;;;;;80.90;18.95;;;11.60;99.90;;;;;;4894660;29;20227;-86
2023/01/05 03:50:46;;;;;;;81.35;16.95;;;11.60;99.90;;;;;;4901725;29;20192;-86
2023/01/05 03:53:12;;;;;;;84.07;17.58;;;11.60;99.90;;;;;;4901990;29;20527;-85
2023/01/05 03:55:37;;;;;;;86.60;18.13;;;11.60;99.90;;;;;;4901817;29;20208;-85
2023/01/05 03:58:03;;;;;;;80.53;20.97;;;11.60;99.90;;;;;;4900073;29;20421;-86
2023/01/05 04:00:28;;;;;;;78.93;16.43;;;11.70;99.90;;;;;;4900038;29;20189;-86
2023/01/05 04:02:54;;;;;;;85.53;20.57;;;11.60;99.90;;;;;;4901247;29;20197;-86
2023/01/05 04:05:20;;;;;;;84.90;16.37;;;11.70;99.90;;;;;;4901804;29;20173;-86
2023/01/05 04:07:45;;;;;;;93.23;24.00;;;11.60;99.90;;;;;;4901224;29;20174;-86
2023/01/05 04:10:12;;;;;;;88.97;18.63;;;11.60;99.90;;;;;;4901104;29;20217;-86
2023/01/05 04:12:37;;;;;;;84.05;18.38;;;11.60;99.90;;;;;;4901124;29;20197;-85
2023/01/05 04:15:04;;;;;;;81.10;19.90;;;11.60;99.90;;;;;;4901437;29;20664;-85
2023/01/05 04:17:30;;;;;;;88.32;18.17;;;11.60;99.90;;;;;;4900806;29;20176;-86
2023/01/05 04:19:59;;;;;;;80.67;19.63;;;11.60;99.90;;;;;;4900834;29;20673;-85
2023/01/05 04:22:25;;;;;;;86.43;19.52;;;11.60;99.90;;;;;;4900959;29;20225;-86
2023/01/05 04:24:50;;;;;;;87.30;18.53;;;11.60;99.90;;;;;;4899929;29;20208;-85
2023/01/05 04:27:16;;;;;;;82.97;19.17;;;11.60;99.90;;;;;;4901168;29;20169;-86
2023/01/05 04:29:42;;;;;;;77.23;22.00;;;11.60;99.90;;;;;;4901097;29;20197;-86
2023/01/05 04:32:07;;;;;;;77.20;20.17;;;11.60;99.90;;;;;;4901251;29;20193;-86
2023/01/05 04:34:33;;;;;;;78.23;17.70;;;11.70;99.90;;;;;;4901104;29;20198;-85
2023/01/05 04:37:02;;;;;;;90.80;22.93;;;11.70;99.90;;;;;;4900602;29;20174;-86
2023/01/05 04:39:30;;;;;;;83.63;18.40;;;11.60;99.90;;;;;;4901170;29;20205;-85
2023/01/05 04:41:59;;;;;;;81.88;23.05;;;11.60;99.90;;;;;;4972263;23;20261;-86
2023/01/05 04:44:25;;;;;;;84.00;18.23;;;11.60;99.90;;;;;;4908572;29;20677;-86
2023/01/05 04:46:51;;;;;;;95.40;28.50;;;11.60;99.90;;;;;;4910020;29;20169;-86
2023/01/05 04:49:17;;;;;;;87.30;17.27;;;11.60;99.90;;;;;;4909226;29;20158;-87
2023/01/05 04:51:42;;;;;;;74.67;16.80;;;11.60;99.90;;;;;;4908959;29;20166;-86
2023/01/05 04:54:08;;;;;;;87.83;19.67;;;11.60;99.90;;;;;;4908995;29;20170;-86
2023/01/05 04:56:34;;;;;;;85.37;16.07;;;11.60;99.90;;;;;;4910148;29;20173;-87
2023/01/05 04:59:00;;;;;;;96.47;17.77;;;11.60;99.90;;;;;;4909522;29;20448;-87
2023/01/05 05:01:25;;;;;;;83.10;17.60;;;11.60;99.90;;;;;;4910428;29;20220;-86
2023/01/05 05:03:51;;;;;;;83.43;17.90;;;11.60;99.90;;;;;;4909789;29;20194;-86
2023/01/05 05:06:17;;;;;;;79.93;18.67;;;11.60;99.90;;;;;;4909665;29;20208;-87
2023/01/05 05:08:43;;;;;;;81.07;17.00;;;11.60;99.90;;;;;;4909011;29;20166;-86
2023/01/05 05:11:08;;;;;;;79.90;16.47;;;11.60;99.90;;;;;;4909628;29;20190;-86
2023/01/05 05:13:34;;;;;;;81.57;16.50;;;11.60;99.90;;;;;;4909980;29;20177;-87
2023/01/05 05:16:00;;;;;;;83.00;17.53;;;11.60;99.90;;;;;;4909595;29;20166;-86
2023/01/05 05:18:25;;;;;;;81.73;23.80;;;11.60;99.90;;;;;;4909262;29;20203;-86
2023/01/05 05:20:52;;;;;;;82.37;18.90;;;11.60;99.90;;;;;;4909111;29;20430;-87
2023/01/05 05:23:18;;;;;;;81.55;21.95;;;11.50;99.90;;;;;;4907963;29;20259;-86
2023/01/05 05:25:43;;;;;;;87.40;18.80;;;11.60;99.90;;;;;;4909582;29;20642;-86
2023/01/05 05:28:09;;;;;;;78.87;19.67;;;11.60;99.90;;;;;;4908544;29;20409;-86
2023/01/05 05:30:37;;;;;;;96.38;18.75;;;11.60;99.90;;;;;;4907683;29;20783;-86
2023/01/05 05:33:03;;;;;;;84.88;19.58;;;11.50;99.90;;;;;;4907645;29;20201;-86
2023/01/05 05:35:28;;;;;;;83.47;17.63;;;11.50;99.90;;;;;;4908417;29;20180;-86
2023/01/05 05:37:54;;;;;;;84.67;20.07;;;11.50;99.90;;;;;;4909092;29;20489;-86
2023/01/05 05:40:20;;;;;;;85.60;21.07;;;11.50;99.90;;;;;;4908341;29;20190;-86
2023/01/05 05:42:45;;;;;;;84.73;20.07;;;11.50;99.90;;;;;;4908735;29;20221;-87
2023/01/05 05:45:11;;;;;;;80.03;20.33;;;11.50;99.90;;;;;;4909090;29;20162;-86
2023/01/05 05:47:36;;;;;;;80.90;19.97;;;11.50;99.90;;;;;;4908494;29;20172;-86
2023/01/05 05:50:03;;;;;;;77.73;18.23;;;11.50;99.90;;;;;;4907535;29;20615;-86
2023/01/05 05:52:29;;;;;;;86.10;20.65;;;11.50;99.90;;;;;;4892112;29;20174;-87
2023/01/05 05:54:54;;;;;;;90.33;21.97;;;11.50;99.90;;;;;;4907764;29;20190;-86
2023/01/05 05:57:20;;;;;;;84.57;19.17;;;11.50;99.90;;;;;;4907940;29;20189;-87
2023/01/05 05:59:45;;;;;;;87.87;19.03;;;11.50;99.90;;;;;;4907922;29;20204;-87
2023/01/05 06:02:11;;;;;;;84.40;19.67;;;11.50;99.90;;;;;;4908616;29;20217;-86
2023/01/05 06:04:37;;;;;;;84.23;21.97;;;11.60;99.90;;;;;;4892536;29;20653;-86
2023/01/05 06:07:02;;;;;;;82.37;16.83;;;11.50;99.90;;;;;;4908575;29;20627;-86
2023/01/05 06:09:28;;;;;;;87.90;21.10;;;11.50;99.90;;;;;;4908466;29;20166;-87
2023/01/05 06:11:54;;;;;;;86.13;19.33;;;11.50;99.90;;;;;;4908750;29;20173;-86
2023/01/05 06:14:20;;;;;;;92.53;16.10;;;11.50;99.90;;;;;;4908531;29;20170;-86
2023/01/05 06:16:45;;;;;;;87.73;24.50;;;11.50;99.90;;;;;;4908951;29;20174;-86
2023/01/05 06:19:11;;;;;;;86.33;24.83;;;11.50;99.90;;;;;;4908385;29;20170;-87
2023/01/05 06:21:37;;;;;;;87.13;20.27;;;11.50;99.90;;;;;;4908501;29;20194;-86
2023/01/05 06:24:03;;;;;;;86.47;23.07;;;11.50;99.90;;;;;;4907242;29;20177;-86
2023/01/05 06:26:28;;;;;;;89.40;20.20;;;11.50;99.90;;;;;;4907018;29;20186;-86
2023/01/05 06:28:54;;;;;;;86.20;20.67;;;11.50;99.90;;;;;;4908040;29;20285;-86
2023/01/05 06:31:19;;;;;;;84.90;19.80;;;11.50;99.90;;;;;;4908104;29;20189;-87
2023/01/05 06:33:45;;;;;;;88.10;21.33;;;11.50;99.90;;;;;;4906863;29;20264;-86
2023/01/05 06:36:11;;;;;;;90.33;21.07;;;11.50;99.90;;;;;;4907716;29;20174;-86
2023/01/05 06:38:36;;;;;;;83.23;20.80;;;11.50;99.90;;;;;;4907895;29;20178;-87
2023/01/05 06:41:02;;;;;;;90.53;21.13;;;11.50;99.90;;;;;;4908229;29;20222;-86
2023/01/05 06:43:28;;;;;;;84.57;22.17;;;11.50;99.90;;;;;;4907616;29;20666;-86
2023/01/05 06:45:53;;;;;;;91.93;17.90;;;11.50;99.90;;;;;;4906762;29;20500;-86
2023/01/05 06:48:19;;;;;;;84.97;17.87;;;11.50;99.90;;;;;;4888571;29;20214;-87
2023/01/05 06:50:45;;;;;;;88.83;19.90;;;11.50;99.90;;;;;;4906226;29;20198;-86
2023/01/05 06:53:11;;;;;;;89.57;21.73;;;11.50;99.90;;;;;;4907023;29;20174;-86
2023/01/05 06:55:36;;;;;;;93.80;19.90;;;11.50;99.90;;;;;;4906927;29;20173;-86
2023/01/05 06:58:02;;;;;;;80.50;18.83;;;11.50;99.90;;;;;;4907735;29;20241;-86
2023/01/05 07:00:28;;;;;;;83.50;17.10;;;11.60;99.90;;;;;;4908172;29;20204;-87
2023/01/05 07:02:54;;;;;;;84.20;17.30;;;11.60;99.90;;;;;;4908119;29;20593;-87
2023/01/05 07:05:22;;;;;;;82.07;20.90;;;11.50;99.90;;;;;;4907502;29;20163;-86
2023/01/05 07:07:47;;;;;;;86.47;19.60;;;11.40;99.90;;;;;;4909051;29;20162;-86
2023/01/05 07:10:13;;;;;;;88.33;20.67;;;11.40;99.90;;;;;;4912691;29;20197;-86
2023/01/05 07:12:38;;;;;;;84.73;20.80;;;11.40;99.90;;;;;;4912204;29;20214;-87
2023/01/05 07:15:05;;;;;;;82.00;19.90;;;11.40;99.90;;;;;;4909047;29;20204;-86
2023/01/05 07:17:31;;;;;;;81.63;22.30;;;11.50;99.90;;;;;;4909263;29;20657;-87
2023/01/05 07:19:57;;;;;;;92.65;21.52;;;11.50;99.90;;;;;;4911146;29;20280;-87
2023/01/05 07:22:23;;;;;;;81.47;17.70;;;11.50;99.90;;;;;;4908772;29;20240;-87
2023/01/05 07:24:48;;;;;;;85.07;23.40;;;11.40;99.90;;;;;;4909483;29;20170;-86
2023/01/05 07:27:14;;;;;;;89.20;21.90;;;11.40;99.90;;;;;;4908947;29;20166;-87
2023/01/05 07:29:39;;;;;;;86.37;21.17;;;11.40;99.90;;;;;;4912459;29;20252;-86
2023/01/05 07:32:05;;;;;;;86.40;17.87;;;11.50;99.90;;;;;;4910051;29;20669;-87
2023/01/05 07:34:31;;;;;;;80.63;20.00;;;11.50;99.90;;;;;;4912145;29;20177;-86
2023/01/05 07:36:57;;;;;;;83.40;16.63;;;11.50;99.90;;;;;;4910726;29;20417;-87
2023/01/05 07:39:23;;;;;;;84.23;17.03;;;11.50;99.90;;;;;;4911820;29;20200;-86
2023/01/05 07:41:48;;;;;;;79.73;19.30;;;11.50;99.90;;;;;;4911842;29;20497;-86
2023/01/05 07:44:14;;;;;;;88.03;19.17;;;11.50;99.90;;;;;;4895872;29;20166;-87
2023/01/05 07:46:40;;;;;;;80.00;16.43;;;11.40;99.90;;;;;;4911645;29;20178;-85
2023/01/05 07:49:05;;;;;;;85.53;21.27;;;11.50;99.90;;;;;;4912031;29;20189;-86
2023/01/05 07:51:31;;;;;;;82.00;21.77;;;11.50;99.90;;;;;;4915649;29;20245;-86
2023/01/05 07:53:57;;;;;;;86.03;22.30;;;11.50;99.90;;;;;;4911331;29;20563;-86
2023/01/05 07:56:22;;;;;;;93.33;22.30;;;11.40;99.90;;;;;;4911812;29;20175;-86
2023/01/05 07:58:48;;;;;;;89.60;22.57;;;11.50;99.90;;;;;;4909796;29;20225;-85
2023/01/05 08:01:17;;;;;;;87.03;22.80;;;11.50;99.90;;;;;;4911184;29;20202;-86
2023/01/05 08:03:43;;;;;;;85.78;23.02;;;11.40;99.90;;;;;;4911807;29;20189;-87
2023/01/05 08:06:12;;;;;;;90.25;19.70;;;11.50;99.90;;;;;;4913491;29;20174;-86
2023/01/05 08:08:37;;;;;;;91.28;20.90;;;11.50;99.90;;;;;;4912313;29;20177;-86
2023/01/05 08:11:08;;;;;;;85.80;20.20;;;11.50;99.90;;;;;;4911259;29;20693;-86
2023/01/05 08:16:19;;;;;;;78.65;19.10;;;11.50;99.90;;;;;;4912104;29;20161;-86
2023/01/05 08:18:45;;;;;;;90.93;15.10;;;11.50;99.90;;;;;;4912424;29;20535;-86
2023/01/05 08:21:11;;;;;;;90.00;16.70;;;11.50;99.90;;;;;;4912414;29;20851;-86
2023/01/05 08:23:37;;;;;;;81.70;17.73;;;11.60;99.90;;;;;;4895388;29;20446;-86
2023/01/05 08:26:15;;;;;;;86.40;18.88;;;11.50;99.90;;;;;;4913416;29;20158;-87
2023/01/05 08:28:41;;;;;;;85.93;17.90;;;11.50;99.90;;;;;;4912168;29;20158;-86
2023/01/05 08:31:16;;;;;;;86.90;16.30;;;11.60;99.90;;;;;;4913322;29;20190;-87
2023/01/05 08:33:42;;;;;;;92.93;22.98;;;11.60;99.90;;;;;;4911742;29;20166;-86
2023/01/05 08:36:10;;;;;;;87.30;17.80;;;11.60;99.90;;;;;;4913426;29;20162;-87
2023/01/05 08:38:36;;;;;;;81.35;18.13;;;11.50;99.90;;;;;;4911850;29;20422;-86
2023/01/05 08:41:02;;;;;;;85.50;22.13;;;11.60;99.90;;;;;;4912254;29;20214;-86
2023/01/05 08:43:28;;;;;;;91.23;20.17;;;11.60;99.90;;;;;;4913135;29;20209;-86
2023/01/05 08:45:53;;;;;;;87.17;16.67;;;11.50;99.90;;;;;;4911392;29;20170;-86
2023/01/05 08:48:19;;;;;;;93.37;16.77;;;11.60;99.90;;;;;;4914147;29;20635;-86
2023/01/05 08:50:45;;;;;;;95.87;18.93;;;11.60;99.90;;;;;;4914054;29;20430;-86
2023/01/05 08:53:10;;;;;;;81.97;19.77;;;11.60;99.90;;;;;;4913095;29;20178;-86
2023/01/05 08:55:36;;;;;;;87.77;17.40;;;11.60;99.90;;;;;;4895095;29;20225;-86
2023/01/05 08:58:05;;;;;;;89.57;16.97;;;11.60;99.90;;;;;;4911152;29;20618;-85
2023/01/05 09:00:31;;;;;;;89.03;16.23;;;11.70;99.90;;;;;;4893998;29;20470;-86
2023/01/05 09:02:56;;;;;;;92.85;21.23;;;11.60;99.90;;;;;;4911072;29;20197;-86
2023/01/05 09:05:22;;;;;;;81.67;19.17;;;11.60;99.90;;;;;;4909692;29;20222;-86
2023/01/05 09:07:47;;;;;;;97.70;29.40;;;11.60;99.90;;;;;;4908634;29;20181;-85
2023/01/05 09:10:13;;;;;;;89.30;16.63;;;11.60;99.90;;;;;;4912651;29;20186;-86
2023/01/05 09:12:39;;;;;;;84.53;18.30;;;11.60;99.90;;;;;;4911960;29;20170;-86
2023/01/05 09:15:06;;;;;;;95.03;23.47;;;11.70;99.90;;;;;;4912081;29;20306;-86
2023/01/05 09:17:34;;;;;;;93.68;20.05;;;11.60;99.90;;;;;;4913005;29;20170;-86
2023/01/05 09:20:02;;;;;;;95.80;22.73;;;11.60;99.90;;;;;;4911569;29;20298;-86
2023/01/05 09:22:30;;;;;;;80.65;15.50;;;11.70;99.90;;;;;;4910543;29;20193;-87
2023/01/05 09:24:55;;;;;;;86.85;19.63;;;11.60;99.90;;;;;;4909708;29;20178;-86
2023/01/05 09:27:21;;;;;;;88.47;16.60;;;11.70;99.90;;;;;;4911479;29;20188;-86
2023/01/05 09:29:47;;;;;;;85.07;19.37;;;11.70;99.90;;;;;;4911431;29;20574;-86
2023/01/05 09:32:12;;;;;;;95.20;20.03;;;11.70;99.90;;;;;;4911684;29;20649;-86
2023/01/05 09:34:38;;;;;;;84.60;19.03;;;11.70;99.90;;;;;;4910050;29;20170;-86
2023/01/05 09:37:03;;;;;;;90.90;20.47;;;11.80;99.90;;;;;;4910317;29;20237;-86
2023/01/05 09:39:29;;;;;;;83.60;17.87;;;11.90;99.90;;;;;;4909770;29;20173;-86
2023/01/05 09:42:00;;;;;;;80.57;17.40;;;11.90;99.90;;;;;;4893128;29;20199;-85
2023/01/05 09:44:42;;;;;;;88.47;16.98;;;11.90;99.90;;;;;;4892160;29;20170;-86
2023/01/05 09:47:17;;;;;;;87.93;21.23;;;11.90;99.90;;;;;;4908608;29;20154;-86
2023/01/05 09:49:46;;;;;;;94.32;19.65;;;12.00;99.90;;;;;;4909614;29;20272;-86
2023/01/05 09:52:13;;;;;;;88.97;17.02;;;12.00;99.90;;;;;;4907416;29;20181;-85
2023/01/05 09:54:39;;;;;;;90.78;20.63;;;12.00;99.90;;;;;;4907741;29;20197;-86
2023/01/05 09:57:13;;;;;;;98.32;17.42;;;12.00;99.90;;;;;;4909042;29;20188;-86
2023/01/05 09:59:51;;;;;;;92.07;16.60;;;12.00;99.90;;;;;;4909381;29;20185;-86
2023/01/05 10:02:41;;;;;;;88.43;18.00;;;12.10;99.90;;;;;;4908917;29;20202;-84
2023/01/05 10:05:10;;;;;;;83.30;17.60;;;12.10;99.90;;;;;;4908441;29;20170;-87
2023/01/05 10:07:53;;;;;;;83.82;17.33;;;12.10;99.90;;;;;;4909479;29;20162;-86
2023/01/05 10:10:37;;;;;;;90.82;17.50;;;12.10;99.90;;;;;;4909029;29;20254;-87
2023/01/05 10:13:06;;;;;;;81.82;14.43;;;12.10;99.90;;;;;;4909999;29;20216;-87
2023/01/05 10:15:47;;;;;;;91.43;14.88;;;12.20;99.90;;;;;;4909605;29;20166;-86
2023/01/05 10:18:16;;;;;;;90.35;13.30;;;12.10;99.90;;;;;;4908552;29;20154;-86
2023/01/05 10:21:29;;;;;;;84.80;14.05;;;12.20;99.90;;;;;;4908061;29;20210;-86
2023/01/05 10:24:06;;;;;;;86.60;15.13;;;12.20;99.90;;;;;;4843441;29;20215;-87
2023/01/05 10:26:56;;;;;;;97.18;15.35;;;12.00;99.90;;;;;;4909574;29;20174;-86
2023/01/05 10:29:37;;;;;;;93.50;14.60;;;12.10;99.90;;;;;;4909887;29;20158;-87
2023/01/05 10:32:24;;;;;;;79.53;13.30;;;12.10;99.90;;;;;;4909228;29;20170;-87
2023/01/05 10:34:53;;;;;;;82.55;12.55;;;12.10;99.90;;;;;;4900552;29;20214;-86
2023/01/05 10:37:34;;;;;;;89.47;16.33;;;12.10;99.90;;;;;;4908291;29;20180;-86
2023/01/05 10:40:13;;;;;;;87.28;13.07;;;12.10;99.90;;;;;;4908442;29;20186;-86
2023/01/05 10:42:44;;;;;;;92.40;13.57;;;12.10;99.90;;;;;;4982069;23;20615;-85
2023/01/05 10:45:18;;;;;;;80.60;12.68;;;12.20;99.90;;;;;;4903886;29;20173;-86
2023/01/05 10:47:45;;;;;;;88.15;11.52;;;12.20;99.90;;;;;;4920435;29;20256;-86
2023/01/05 10:50:40;;;;;;;97.53;11.52;;;12.20;99.90;;;;;;4920447;29;20185;-85
2023/01/05 10:53:19;;;;;;;82.80;10.80;;;12.30;99.90;;;;;;4918845;29;20185;-86
2023/01/05 10:56:06;;;;;;;88.78;10.95;;;12.30;99.90;;;;;;4903224;29;20165;-85
2023/01/05 10:58:34;;;;;;;93.28;13.00;;;12.40;99.90;;;;;;4921013;29;20194;-85
2023/01/05 11:01:22;;;;;;;90.80;13.90;;;12.50;99.90;;;;;;4921413;29;20203;-85
2023/01/05 11:03:51;;;;;;;78.97;12.98;;;12.50;99.90;;;;;;4905830;29;20200;-85
2023/01/05 11:06:25;;;;;;;83.05;14.55;;;12.40;99.90;;;;;;4905406;29;20177;-85
2023/01/05 11:08:51;;;;;;;84.75;15.75;;;12.40;99.90;;;;;;4923953;29;20154;-86
2023/01/05 11:11:23;;;;;;;81.60;13.97;;;12.50;99.90;;;;;;4906640;29;20224;-86
2023/01/05 11:13:51;;;;;;;86.78;13.02;;;12.50;99.90;;;;;;4904697;29;20413;-85
2023/01/05 11:16:21;;;;;;;83.60;15.13;;;12.50;99.90;;;;;;4905757;29;20653;-85
2023/01/05 11:18:57;;;;;;;83.68;15.43;;;12.50;99.90;;;;;;4905440;29;20192;-85
2023/01/05 11:21:44;;;;;;;85.57;12.23;;;12.60;99.90;;;;;;4921619;29;20279;-87
2023/01/05 11:24:22;;;;;;;91.25;14.35;;;12.60;99.90;;;;;;4903696;29;20193;-85
2023/01/05 11:26:50;;;;;;;87.15;10.90;;;12.60;99.90;;;;;;4905484;29;20173;-86
2023/01/05 11:29:17;;;;;;;76.53;10.95;;;12.50;99.90;;;;;;4921765;29;20169;-85
2023/01/05 11:32:03;;;;;;;92.47;9.50;;;12.60;99.90;;;;;;4903176;29;20170;-86
2023/01/05 11:34:32;;;;;;;80.25;8.73;;;12.70;99.90;;;;;;4905155;29;20162;-86
2023/01/05 11:37:02;;;;;;;83.28;8.95;;;12.70;99.90;;;;;;4920813;29;20165;-85
2023/01/05 11:39:30;;;;;;;84.95;8.23;;;12.80;99.90;;;;;;4922265;29;20168;-86
2023/01/05 11:42:22;;;;;;;83.53;8.40;;;12.80;99.90;;;;;;4904015;29;20248;-85
2023/01/05 11:44:50;;;;;;;78.10;7.43;;;12.70;98.70;;;;;;4903493;29;20545;-86
2023/01/05 11:47:23;;;;;;;85.78;9.05;;;12.80;99.90;;;;;;4920915;29;20700;-85
2023/01/05 11:50:04;;;;;;;78.00;8.48;;;12.80;98.30;;;;;;4922299;29;20192;-85
2023/01/05 11:52:39;;;;;;;78.30;8.48;;;12.80;99.90;;;;;;4905371;29;20646;-86
2023/01/05 11:55:23;;;;;;;80.00;9.38;;;12.80;97.30;;;;;;4923873;29;20196;-87
2023/01/05 11:57:52;;;;;;;76.15;10.15;;;12.80;96.10;;;;;;4904688;29;20260;-85
2023/01/05 12:00:36;;;;;;;85.78;8.85;;;12.80;94.50;;;;;;4904328;29;20684;-85
2023/01/05 12:03:20;;;;;;;92.95;11.10;;;12.90;94.50;;;;;;4926448;29;20220;-87
2023/01/05 12:05:50;;;;;;;76.40;9.50;;;12.90;92.00;;;;;;4910041;29;20260;-87
2023/01/05 12:08:26;;;;;;;84.35;11.77;;;13.00;91.00;;;;;;4908822;29;20153;-85
2023/01/05 12:10:55;;;;;;;78.18;10.30;;;13.10;88.30;;;;;;4924841;29;20185;-85
2023/01/05 12:13:57;;;;;;;88.05;10.05;;;13.00;80.20;;;;;;4925318;29;20208;-85
2023/01/05 12:16:48;;;;;;;77.55;10.38;;;13.10;85.30;;;;;;4906965;29;20208;-85
2023/01/05 12:19:20;;;;;;;82.93;10.70;;;13.00;86.60;;;;;;4907749;29;20578;-85
2023/01/05 12:22:10;;;;;;;84.07;9.50;;;12.90;83.80;;;;;;4906981;29;20185;-86
2023/01/05 12:24:44;;;;;;;77.35;9.65;;;12.80;85.90;;;;;;4907056;29;20244;-85
2023/01/05 12:27:36;;;;;;;82.05;11.25;;;12.80;89.20;;;;;;4925353;29;20153;-86
2023/01/05 12:30:24;;;;;;;78.97;9.95;;;12.80;91.30;;;;;;4906528;29;20237;-85
2023/01/05 12:33:27;;;;;;;81.35;10.70;;;12.80;91.80;;;;;;4924201;29;20205;-86
2023/01/05 12:36:14;;;;;;;83.28;9.45;;;12.90;90.90;;;;;;4907373;29;20189;-86
2023/01/05 12:38:47;;;;;;;82.97;9.68;;;12.90;90.90;;;;;;4923874;29;20160;-85
2023/01/05 12:41:28;;;;;;;84.65;8.68;;;13.00;92.10;;;;;;4923713;29;20205;-86
2023/01/05 12:44:12;;;;;;;82.88;11.95;;;13.00;90.20;;;;;;4907756;29;20192;-86
2023/01/05 12:46:49;;;;;;;76.97;10.00;;;13.00;88.00;;;;;;4923612;29;20161;-86
2023/01/05 12:49:20;;;;;;;83.22;11.38;;;13.00;90.00;;;;;;4925193;29;20168;-87
2023/01/05 12:52:02;;;;;;;79.55;9.43;;;12.90;80.70;;;;;;4925878;29;20181;-86
2023/01/05 12:54:54;;;;;;;85.85;10.05;;;12.80;76.70;;;;;;4925257;29;20164;-85
2023/01/05 12:57:37;;;;;;;79.30;8.70;;;12.80;84.80;;;;;;4924490;29;20162;-85
2023/01/05 13:00:07;;;;;;;81.82;10.70;;;12.80;82.60;;;;;;4907867;29;20201;-86
2023/01/05 13:02:43;;;;;;;75.65;8.57;;;12.80;85.80;;;;;;4907959;29;20193;-86
2023/01/05 13:05:21;;;;;;;76.68;9.30;;;12.80;86.40;;;;;;4923588;29;20150;-85
2023/01/05 13:07:58;;;;;;;79.75;9.40;;;12.80;79.00;;;;;;4922635;29;20256;-88
2023/01/05 13:10:24;;;;;;;80.38;11.20;;;12.80;83.10;;;;;;4924099;29;20196;-87
2023/01/05 13:12:55;;;;;;;77.33;9.27;;;12.80;82.80;;;;;;4906784;29;20634;-85
2023/01/05 13:15:28;;;;;;;85.88;10.48;;;12.80;87.60;;;;;;4907394;29;20626;-86
2023/01/05 13:17:57;;;;;;;91.30;12.13;;;12.80;88.00;;;;;;4923805;29;20217;-86